createdAt,value
2023-03-25T00:00:45.190Z,98928.41
2023-03-25T00:01:47.560Z,98926.73
2023-03-25T00:02:54.974Z,98924.00
2023-03-25T00:04:00.241Z,98925.55
2023-03-25T00:05:03.560Z,98921.86
2023-03-25T00:06:07.679Z,98924.39
2023-03-25T00:07:10.845Z,98913.06
2023-03-25T00:08:15.204Z,98919.16
2023-03-25T00:09:19.131Z,98919.97
2023-03-25T00:10:21.831Z,98913.41
2023-03-25T00:11:28.221Z,98911.16
2023-03-25T00:12:31.161Z,98913.05
2023-03-25T00:13:35.142Z,98916.73
2023-03-25T00:14:39.248Z,98914.20
2023-03-25T00:15:45.288Z,98906.48
2023-03-25T00:16:48.353Z,98907.55
2023-03-25T00:17:50.783Z,98909.83
2023-03-25T00:18:53.740Z,98912.78
2023-03-25T00:19:56.339Z,98923.46
2023-03-25T00:21:04.673Z,98914.30
2023-03-25T00:22:08.208Z,98916.92
2023-03-25T00:23:11.938Z,98908.34
2023-03-25T00:24:16.138Z,98909.80
2023-03-25T00:25:20.173Z,98908.61
2023-03-25T00:26:23.131Z,98911.36
2023-03-25T00:27:25.375Z,98905.05
2023-03-25T00:28:33.684Z,98896.72
2023-03-25T00:29:35.990Z,98903.84
2023-03-25T00:30:40.367Z,98898.27
2023-03-25T00:31:43.260Z,98904.81
2023-03-25T00:32:49.256Z,98906.73
2023-03-25T00:33:56.414Z,98900.03
2023-03-25T00:34:59.295Z,98897.06
2023-03-25T00:36:03.876Z,98903.97
2023-03-25T00:37:06.142Z,98903.97
2023-03-25T00:38:09.688Z,98893.59
2023-03-25T00:39:12.281Z,98899.43
2023-03-25T00:40:15.296Z,98903.59
2023-03-25T00:41:25.216Z,98893.98
2023-03-25T00:42:27.850Z,98892.77
2023-03-25T00:43:30.088Z,98899.25
2023-03-25T00:44:33.612Z,98890.22
2023-03-25T00:45:35.857Z,98889.52
2023-03-25T00:46:38.346Z,98881.30
2023-03-25T00:47:41.178Z,98885.47
2023-03-25T00:48:43.910Z,98889.27
2023-03-25T00:49:46.299Z,98895.11
2023-03-25T00:50:48.662Z,98893.23
2023-03-25T00:51:52.818Z,98889.42
2023-03-25T00:52:55.819Z,98884.31
2023-03-25T00:54:02.925Z,98888.00
2023-03-25T00:55:07.598Z,98890.48
2023-03-25T00:56:10.420Z,98886.93
2023-03-25T00:57:13.440Z,98888.81
2023-03-25T00:58:15.948Z,98890.28
2023-03-25T00:59:18.416Z,98890.77
2023-03-25T01:00:20.981Z,98891.92
2023-03-25T01:01:26.619Z,98894.30
2023-03-25T01:02:31.390Z,98902.23
2023-03-25T01:03:35.783Z,98903.08
2023-03-25T01:04:41.474Z,98905.91
2023-03-25T01:05:45.091Z,98897.23
2023-03-25T01:06:50.553Z,98904.97
2023-03-25T01:07:52.636Z,98906.23
2023-03-25T01:08:57.479Z,98901.38
2023-03-25T01:09:59.869Z,98899.91
2023-03-25T01:11:02.455Z,98893.95
2023-03-25T01:12:05.432Z,98888.34
2023-03-25T01:13:07.755Z,98888.34
2023-03-25T01:14:16.424Z,98897.41
2023-03-25T01:15:18.819Z,98893.53
2023-03-25T01:16:23.082Z,98893.89
2023-03-25T01:17:25.771Z,98893.08
2023-03-25T01:18:27.833Z,98890.45
2023-03-25T01:19:30.675Z,98902.23
2023-03-25T01:20:33.336Z,98902.23
2023-03-25T01:21:36.268Z,98896.78
2023-03-25T01:22:38.643Z,98904.17
2023-03-25T01:23:41.451Z,98898.13
2023-03-25T01:24:43.768Z,98897.15
2023-03-25T01:25:46.093Z,98907.12
2023-03-25T01:26:48.722Z,98900.95
2023-03-25T01:27:50.844Z,98905.97
2023-03-25T01:28:53.508Z,98908.67
2023-03-25T01:29:55.741Z,98909.28
2023-03-25T01:31:04.058Z,98902.38
2023-03-25T01:32:06.324Z,98906.52
2023-03-25T01:33:08.416Z,98906.19
2023-03-25T01:34:10.801Z,98901.77
2023-03-25T01:35:13.206Z,98898.22
2023-03-25T01:36:17.104Z,98898.55
2023-03-25T01:37:20.112Z,98903.08
2023-03-25T01:38:23.002Z,98894.63
2023-03-25T01:39:25.206Z,98900.47
2023-03-25T01:40:28.720Z,98896.17
2023-03-25T01:41:46.322Z,98896.17
2023-03-25T01:42:36.199Z,98901.41
2023-03-25T01:43:38.424Z,98899.73
2023-03-25T01:44:44.103Z,98896.17
2023-03-25T01:45:46.834Z,98898.30
2023-03-25T01:46:52.467Z,98897.78
2023-03-25T01:48:01.237Z,98902.31
2023-03-25T01:49:07.659Z,98895.41
2023-03-25T01:50:13.746Z,98897.30
2023-03-25T01:51:19.574Z,98899.91
2023-03-25T01:52:25.774Z,98892.92
2023-03-25T01:53:31.392Z,98899.18
2023-03-25T01:54:36.764Z,98908.20
2023-03-25T01:55:39.816Z,98898.48
2023-03-25T01:56:47.032Z,98892.30
2023-03-25T01:57:54.363Z,98904.86
2023-03-25T01:58:58.938Z,98901.55
2023-03-25T02:00:01.632Z,98893.70
2023-03-25T02:01:04.525Z,98903.63
2023-03-25T02:02:08.912Z,98903.63
2023-03-25T02:03:13.928Z,98900.52
2023-03-25T02:04:21.697Z,98897.17
2023-03-25T02:05:27.573Z,98898.03
2023-03-25T02:06:51.521Z,98890.30
2023-03-25T02:07:57.838Z,98892.68
2023-03-25T02:09:06.014Z,98900.97
2023-03-25T02:10:10.935Z,98888.63
2023-03-25T02:11:14.248Z,98894.30
2023-03-25T02:12:16.645Z,98889.41
2023-03-25T02:13:19.710Z,98892.83
2023-03-25T02:14:25.806Z,98887.41
2023-03-25T02:15:32.052Z,98888.14
2023-03-25T02:16:55.153Z,98882.67
2023-03-25T02:18:12.828Z,98894.06
2023-03-25T02:19:52.178Z,98885.52
2023-03-25T02:22:25.453Z,98879.44
2023-03-25T02:23:55.656Z,98880.53
2023-03-25T02:25:07.621Z,98875.92
2023-03-25T02:26:30.520Z,98875.84
2023-03-25T02:27:38.247Z,98877.39
2023-03-25T02:28:50.462Z,98877.84
2023-03-25T02:29:59.476Z,98876.16
2023-03-25T02:31:28.070Z,98878.04
2023-03-25T02:32:46.995Z,98874.69
2023-03-25T02:34:16.548Z,98877.92
2023-03-25T02:35:39.460Z,98870.32
2023-03-25T02:37:05.290Z,98870.94
2023-03-25T02:38:25.694Z,98872.37
2023-03-25T02:39:44.101Z,98870.94
2023-03-25T02:40:51.577Z,98874.61
2023-03-25T02:42:18.278Z,98878.98
2023-03-25T02:43:24.592Z,98881.83
2023-03-25T02:44:37.086Z,98875.98
2023-03-25T02:45:46.072Z,98873.98
2023-03-25T02:46:54.891Z,98875.55
2023-03-25T02:48:01.154Z,98874.69
2023-03-25T02:49:16.457Z,98873.87
2023-03-25T02:50:25.345Z,98880.66
2023-03-25T02:51:34.293Z,98874.48
2023-03-25T02:52:42.919Z,98879.48
2023-03-25T02:53:48.642Z,98874.05
2023-03-25T02:54:56.022Z,98881.39
2023-03-25T02:56:01.927Z,98878.98
2023-03-25T02:57:08.323Z,98875.55
2023-03-25T02:58:14.464Z,98883.06
2023-03-25T02:59:21.802Z,98882.20
2023-03-25T03:00:28.011Z,98880.77
2023-03-25T03:01:32.467Z,98881.59
2023-03-25T03:02:36.609Z,98886.81
2023-03-25T03:03:39.305Z,98876.36
2023-03-25T03:04:49.261Z,98878.77
2023-03-25T03:05:54.908Z,98874.48
2023-03-25T03:06:57.565Z,98882.20
2023-03-25T03:08:17.452Z,98883.77
2023-03-25T03:10:55.279Z,98876.54
2023-03-25T03:12:13.099Z,98884.64
2023-03-25T03:13:40.217Z,98885.58
2023-03-25T03:14:46.061Z,98887.49
2023-03-25T03:16:01.053Z,98875.54
2023-03-25T03:17:19.511Z,98876.48
2023-03-25T03:18:37.021Z,98877.85
2023-03-25T03:19:47.253Z,98876.48
2023-03-25T03:21:00.138Z,98872.19
2023-03-25T03:22:38.352Z,98870.43
2023-03-25T03:23:59.226Z,98877.21
2023-03-25T03:25:08.589Z,98866.59
2023-03-25T03:26:15.458Z,98866.23
2023-03-25T03:27:25.553Z,98868.77
2023-03-25T03:28:34.189Z,98873.05
2023-03-25T03:29:40.404Z,98868.84
2023-03-25T03:30:46.359Z,98857.78
2023-03-25T03:32:07.568Z,98869.70
2023-03-25T03:33:21.332Z,98866.03
2023-03-25T03:34:30.247Z,98864.16
2023-03-25T03:35:39.594Z,98855.26
2023-03-25T03:36:45.502Z,98858.81
2023-03-25T03:37:51.495Z,98867.83
2023-03-25T03:39:00.800Z,98871.88
2023-03-25T03:40:06.925Z,98876.36
2023-03-25T03:41:13.497Z,98867.70
2023-03-25T03:42:25.478Z,98873.55
2023-03-25T03:43:42.294Z,98878.38
2023-03-25T03:44:48.632Z,98877.23
2023-03-25T03:45:54.660Z,98875.47
2023-03-25T03:47:00.935Z,98882.80
2023-03-25T03:48:06.944Z,98878.02
2023-03-25T03:49:16.606Z,98874.44
2023-03-25T03:50:23.065Z,98868.07
2023-03-25T03:51:31.694Z,98873.50
2023-03-25T03:54:01.801Z,98876.53
2023-03-25T03:55:12.682Z,98867.03
2023-03-25T03:56:24.668Z,98866.09
2023-03-25T03:57:31.327Z,98868.07
2023-03-25T03:58:42.312Z,98874.73
2023-03-25T03:59:57.328Z,98864.52
2023-03-25T04:01:15.259Z,98858.33
2023-03-25T04:02:38.038Z,98859.30
2023-03-25T04:03:52.838Z,98854.58
2023-03-25T04:04:57.372Z,98853.64
2023-03-25T04:06:05.002Z,98855.08
2023-03-25T04:07:11.094Z,98849.03
2023-03-25T04:08:28.742Z,98846.30
2023-03-25T04:09:51.861Z,98848.19
2023-03-25T04:11:04.500Z,98842.02
2023-03-25T04:12:22.389Z,98848.59
2023-03-25T04:13:28.390Z,98847.33
2023-03-25T04:14:32.049Z,98847.54
2023-03-25T04:15:34.316Z,98849.95
2023-03-25T04:16:39.346Z,98857.37
2023-03-25T04:17:42.900Z,98844.52
2023-03-25T04:18:47.055Z,98846.52
2023-03-25T04:19:51.823Z,98850.27
2023-03-25T04:20:55.894Z,98840.64
2023-03-25T04:21:58.194Z,98842.75
2023-03-25T04:23:00.956Z,98846.51
2023-03-25T04:24:04.124Z,98849.86
2023-03-25T04:25:07.384Z,98844.02
2023-03-25T04:26:12.096Z,98842.75
2023-03-25T04:27:15.274Z,98849.66
2023-03-25T04:28:19.359Z,98845.69
2023-03-25T04:29:21.798Z,98842.75
2023-03-25T04:30:25.954Z,98847.12
2023-03-25T04:31:31.485Z,98847.74
2023-03-25T04:32:34.634Z,98850.36
2023-03-25T04:33:36.937Z,98852.27
2023-03-25T04:34:40.816Z,98848.92
2023-03-25T04:35:43.218Z,98851.73
2023-03-25T04:36:49.582Z,98842.78
2023-03-25T04:37:57.377Z,98848.44
2023-03-25T04:39:01.206Z,98851.55
2023-03-25T04:40:06.422Z,98848.12
2023-03-25T04:41:10.077Z,98850.84
2023-03-25T04:42:13.286Z,98851.16
2023-03-25T04:43:16.916Z,98848.67
2023-03-25T04:44:21.353Z,98846.88
2023-03-25T04:45:24.912Z,98853.89
2023-03-25T04:46:28.123Z,98853.89
2023-03-25T04:47:31.223Z,98858.88
2023-03-25T04:48:38.597Z,98850.93
2023-03-25T04:49:45.388Z,98855.09
2023-03-25T04:50:48.420Z,98854.70
2023-03-25T04:51:52.724Z,98860.74
2023-03-25T04:53:00.322Z,98865.23
2023-03-25T04:54:03.682Z,98859.50
2023-03-25T04:55:06.786Z,98862.00
2023-03-25T04:56:16.561Z,98868.94
2023-03-25T04:57:19.747Z,98861.73
2023-03-25T04:58:22.504Z,98866.84
2023-03-25T04:59:26.540Z,98866.45
2023-03-25T05:00:29.054Z,98868.83
2023-03-25T05:01:32.575Z,98866.02
2023-03-25T05:02:34.930Z,98866.72
2023-03-25T05:03:39.426Z,98867.69
2023-03-25T05:04:42.965Z,98865.78
2023-03-25T05:05:45.430Z,98864.11
2023-03-25T05:06:50.698Z,98861.42
2023-03-25T05:07:58.533Z,98866.45
2023-03-25T05:09:03.815Z,98870.39
2023-03-25T05:10:08.806Z,98869.33
2023-03-25T05:11:11.121Z,98867.69
2023-03-25T05:12:13.176Z,98857.95
2023-03-25T05:13:23.974Z,98866.41
2023-03-25T05:14:26.434Z,98862.23
2023-03-25T05:15:32.095Z,98866.02
2023-03-25T05:16:35.224Z,98868.31
2023-03-25T05:17:39.024Z,98862.23
2023-03-25T05:18:41.484Z,98856.20
2023-03-25T05:19:43.943Z,98854.72
2023-03-25T05:20:48.491Z,98851.06
2023-03-25T05:21:51.833Z,98849.92
2023-03-25T05:22:56.170Z,98844.47
2023-03-25T05:24:00.469Z,98840.48
2023-03-25T05:25:06.319Z,98845.07
2023-03-25T05:26:11.638Z,98840.46
2023-03-25T05:27:14.512Z,98839.52
2023-03-25T05:28:17.512Z,98840.27
2023-03-25T05:29:20.764Z,98840.14
2023-03-25T05:30:24.037Z,98835.30
2023-03-25T05:31:26.243Z,98836.36
2023-03-25T05:32:31.693Z,98834.27
2023-03-25T05:33:42.794Z,98836.35
2023-03-25T05:34:48.143Z,98831.73
2023-03-25T05:35:50.738Z,98831.41
2023-03-25T05:36:53.802Z,98832.23
2023-03-25T05:37:57.368Z,98834.64
2023-03-25T05:39:00.084Z,98825.13
2023-03-25T05:40:03.437Z,98828.44
2023-03-25T05:41:10.139Z,98825.41
2023-03-25T05:42:12.615Z,98831.45
2023-03-25T05:43:15.631Z,98831.05
2023-03-25T05:44:18.334Z,98827.41
2023-03-25T05:45:21.583Z,98832.02
2023-03-25T05:46:24.277Z,98827.62
2023-03-25T05:47:29.285Z,98832.97
2023-03-25T05:48:32.468Z,98829.73
2023-03-25T05:49:34.766Z,98825.95
2023-03-25T05:51:53.683Z,98825.05
2023-03-25T05:52:56.808Z,98823.45
2023-03-25T05:53:59.540Z,98822.96
2023-03-25T05:55:04.439Z,98822.44
2023-03-25T05:56:08.069Z,98827.90
2023-03-25T05:57:10.883Z,98815.16
2023-03-25T05:58:13.342Z,98815.16
2023-03-25T05:59:16.109Z,98821.62
2023-03-25T06:00:20.761Z,98816.39
2023-03-25T06:01:33.345Z,98819.74
2023-03-25T06:02:29.947Z,98816.39
2023-03-25T06:03:33.730Z,98818.30
2023-03-25T06:05:47.964Z,98822.11
2023-03-25T06:06:50.368Z,98819.01
2023-03-25T06:07:55.445Z,98824.03
2023-03-25T06:08:58.213Z,98823.00
2023-03-25T06:10:00.915Z,98823.73
2023-03-25T06:11:03.548Z,98820.55
2023-03-25T06:12:07.262Z,98824.44
2023-03-25T06:13:09.567Z,98824.44
2023-03-25T06:14:11.831Z,98821.73
2023-03-25T06:15:24.666Z,98820.27
2023-03-25T06:16:27.209Z,98817.33
2023-03-25T06:17:29.617Z,98814.02
2023-03-25T06:18:38.462Z,98815.34
2023-03-25T06:19:40.788Z,98813.08
2023-03-25T06:20:46.359Z,98810.23
2023-03-25T06:21:50.616Z,98803.01
2023-03-25T06:22:53.399Z,98809.82
2023-03-25T06:23:59.118Z,98800.10
2023-03-25T06:25:03.842Z,98805.53
2023-03-25T06:26:06.881Z,98799.89
2023-03-25T06:27:12.752Z,98794.67
2023-03-25T06:28:16.811Z,98796.31
2023-03-25T06:29:18.973Z,98795.61
2023-03-25T06:30:21.722Z,98792.27
2023-03-25T06:31:30.869Z,98796.55
2023-03-25T06:32:33.468Z,98796.87
2023-03-25T06:33:42.516Z,98798.80
2023-03-25T06:34:41.899Z,98797.61
2023-03-25T06:35:49.145Z,98793.77
2023-03-25T06:36:54.637Z,98792.83
2023-03-25T06:37:57.024Z,98796.63
2023-03-25T06:39:05.681Z,98796.83
2023-03-25T06:40:09.764Z,98793.28
2023-03-25T06:41:13.417Z,98798.70
2023-03-25T06:42:16.093Z,98786.38
2023-03-25T06:43:23.207Z,98792.66
2023-03-25T06:44:32.703Z,98792.55
2023-03-25T06:45:52.616Z,98792.66
2023-03-25T06:47:01.673Z,98804.55
2023-03-25T06:48:09.970Z,98798.70
2023-03-25T06:49:13.039Z,98796.20
2023-03-25T06:50:15.721Z,98802.28
2023-03-25T06:51:18.368Z,98806.77
2023-03-25T06:52:21.147Z,98798.70
2023-03-25T06:53:24.182Z,98797.65
2023-03-25T06:54:27.119Z,98803.40
2023-03-25T06:55:29.746Z,98797.73
2023-03-25T06:56:32.232Z,98799.29
2023-03-25T06:57:35.594Z,98797.61
2023-03-25T06:58:38.479Z,98803.89
2023-03-25T06:59:41.508Z,98799.41
2023-03-25T07:00:45.914Z,98800.72
2023-03-25T07:01:48.411Z,98798.84
2023-03-25T07:02:50.895Z,98800.31
2023-03-25T07:03:52.978Z,98800.10
2023-03-25T07:04:57.514Z,98797.77
2023-03-25T07:06:00.165Z,98798.99
2023-03-25T07:07:02.381Z,98796.09
2023-03-25T07:08:05.162Z,98796.83
2023-03-25T07:09:08.028Z,98793.00
2023-03-25T07:10:13.207Z,98794.42
2023-03-25T07:11:19.155Z,98793.98
2023-03-25T07:12:23.619Z,98798.59
2023-03-25T07:13:26.786Z,98798.99
2023-03-25T07:14:29.085Z,98793.77
2023-03-25T07:15:31.417Z,98802.31
2023-03-25T07:16:34.105Z,98798.75
2023-03-25T07:17:36.442Z,98795.44
2023-03-25T07:18:39.128Z,98798.47
2023-03-25T07:19:43.579Z,98791.08
2023-03-25T07:20:46.339Z,98790.38
2023-03-25T07:21:49.599Z,98783.48
2023-03-25T07:22:55.052Z,98787.20
2023-03-25T07:23:57.696Z,98776.14
2023-03-25T07:24:59.884Z,98785.16
2023-03-25T07:26:02.344Z,98782.09
2023-03-25T07:27:04.753Z,98779.81
2023-03-25T07:28:08.694Z,98775.93
2023-03-25T07:29:12.576Z,98779.76
2023-03-25T07:30:15.891Z,98771.80
2023-03-25T07:31:18.283Z,98774.30
2023-03-25T07:32:20.776Z,98773.02
2023-03-25T07:33:24.270Z,98774.23
2023-03-25T07:34:27.062Z,98776.51
2023-03-25T07:35:29.352Z,98774.04
2023-03-25T07:36:31.554Z,98772.92
2023-03-25T07:37:33.884Z,98769.61
2023-03-25T07:38:37.383Z,98774.59
2023-03-25T07:39:40.598Z,98771.64
2023-03-25T07:40:43.363Z,98768.08
2023-03-25T07:41:47.542Z,98764.65
2023-03-25T07:42:58.493Z,98763.72
2023-03-25T07:44:20.952Z,98762.53
2023-03-25T07:45:25.212Z,98762.53
2023-03-25T07:47:38.250Z,98758.76
2023-03-25T07:48:41.931Z,98762.58
2023-03-25T07:49:44.270Z,98765.44
2023-03-25T07:50:49.337Z,98767.83
2023-03-25T07:51:52.177Z,98763.76
2023-03-25T07:52:54.912Z,98758.77
2023-03-25T07:54:04.976Z,98757.81
2023-03-25T07:55:02.852Z,98758.57
2023-03-25T07:56:07.206Z,98754.39
2023-03-25T07:57:10.677Z,98754.39
2023-03-25T07:58:13.417Z,98748.56
2023-03-25T07:59:15.473Z,98762.38
2023-03-25T08:00:18.270Z,98754.02
2023-03-25T08:01:20.291Z,98756.42
2023-03-25T08:02:23.527Z,98753.57
2023-03-25T08:03:27.370Z,98739.86
2023-03-25T08:04:29.980Z,98744.73
2023-03-25T08:05:32.797Z,98746.07
2023-03-25T08:06:35.273Z,98740.22
2023-03-25T08:07:38.041Z,98744.64
2023-03-25T08:08:41.217Z,98738.55
2023-03-25T08:09:43.363Z,98737.86
2023-03-25T08:10:47.511Z,98726.90
2023-03-25T08:11:51.254Z,98738.55
2023-03-25T08:12:54.942Z,98741.30
2023-03-25T08:14:00.021Z,98738.58
2023-03-25T08:15:03.220Z,98734.75
2023-03-25T08:16:14.780Z,98739.98
2023-03-25T08:17:17.357Z,98735.34
2023-03-25T08:18:19.763Z,98730.72
2023-03-25T08:19:22.977Z,98737.95
2023-03-25T08:20:25.706Z,98729.02
2023-03-25T08:21:28.435Z,98734.25
2023-03-25T08:22:31.798Z,98736.55
2023-03-25T08:23:35.998Z,98736.20
2023-03-25T08:24:38.258Z,98737.14
2023-03-25T08:25:42.310Z,98731.77
2023-03-25T08:26:44.595Z,98720.71
2023-03-25T08:27:46.776Z,98720.71
2023-03-25T08:28:48.970Z,98719.77
2023-03-25T08:29:55.532Z,98721.66
2023-03-25T08:30:58.650Z,98718.81
2023-03-25T08:32:01.334Z,98722.61
2023-03-25T08:33:07.132Z,98724.48
2023-03-25T08:34:10.002Z,98725.69
2023-03-25T08:35:13.322Z,98719.02
2023-03-25T08:36:18.148Z,98720.19
2023-03-25T08:37:21.076Z,98718.02
2023-03-25T08:38:24.724Z,98720.86
2023-03-25T08:39:28.733Z,98723.34
2023-03-25T08:40:32.784Z,98720.13
2023-03-25T08:41:37.485Z,98717.11
2023-03-25T08:42:40.857Z,98707.92
2023-03-25T08:43:45.069Z,98712.92
2023-03-25T08:44:47.797Z,98710.55
2023-03-25T08:45:50.519Z,98715.41
2023-03-25T08:46:53.014Z,98707.89
2023-03-25T08:47:55.416Z,98697.41
2023-03-25T08:48:58.374Z,98703.13
2023-03-25T08:50:00.739Z,98694.82
2023-03-25T08:51:04.252Z,98703.13
2023-03-25T08:52:08.111Z,98697.65
2023-03-25T08:53:10.536Z,98694.82
2023-03-25T08:54:12.860Z,98688.49
2023-03-25T08:55:15.739Z,98682.30
2023-03-25T08:56:18.158Z,98677.64
2023-03-25T08:57:20.796Z,98680.02
2023-03-25T08:58:24.367Z,98684.84
2023-03-25T08:59:27.690Z,98682.73
2023-03-25T09:00:31.025Z,98682.02
2023-03-25T09:01:33.962Z,98673.47
2023-03-25T09:02:36.419Z,98682.02
2023-03-25T09:03:40.332Z,98690.14
2023-03-25T09:04:43.247Z,98689.42
2023-03-25T09:05:46.247Z,98685.00
2023-03-25T09:07:11.378Z,98675.11
2023-03-25T09:07:54.145Z,98682.97
2023-03-25T09:08:56.757Z,98670.80
2023-03-25T09:09:58.906Z,98675.45
2023-03-25T09:11:01.704Z,98677.25
2023-03-25T09:12:05.280Z,98666.27
2023-03-25T09:13:09.231Z,98681.00
2023-03-25T09:14:12.727Z,98675.77
2023-03-25T09:15:15.137Z,98680.25
2023-03-25T09:16:18.006Z,98682.67
2023-03-25T09:17:20.498Z,98682.87
2023-03-25T09:18:22.857Z,98678.55
2023-03-25T09:19:25.655Z,98689.72
2023-03-25T09:20:29.061Z,98679.30
2023-03-25T09:21:31.360Z,98681.10
2023-03-25T09:22:34.400Z,98674.11
2023-03-25T09:23:36.998Z,98681.30
2023-03-25T09:24:40.102Z,98675.48
2023-03-25T09:25:43.165Z,98681.30
2023-03-25T09:26:46.670Z,98684.30
2023-03-25T09:27:49.076Z,98684.95
2023-03-25T09:28:52.228Z,98679.81
2023-03-25T09:29:54.722Z,98677.56
2023-03-25T09:30:58.644Z,98674.27
2023-03-25T09:32:01.655Z,98673.11
2023-03-25T09:33:04.627Z,98670.86
2023-03-25T09:34:08.069Z,98673.34
2023-03-25T09:35:12.519Z,98674.78
2023-03-25T09:36:16.239Z,98668.51
2023-03-25T09:37:19.705Z,98670.69
2023-03-25T09:38:22.997Z,98675.93
2023-03-25T09:39:25.970Z,98679.57
2023-03-25T09:40:28.697Z,98681.54
2023-03-25T09:42:06.909Z,98674.20
2023-03-25T09:43:21.810Z,98677.58
2023-03-25T09:44:31.343Z,98669.19
2023-03-25T09:45:47.083Z,98672.33
2023-03-25T09:46:51.264Z,98666.31
2023-03-25T09:48:02.947Z,98669.65
2023-03-25T09:49:11.876Z,98669.61
2023-03-25T09:50:18.467Z,98667.94
2023-03-25T09:51:30.624Z,98664.22
2023-03-25T09:52:46.486Z,98669.08
2023-03-25T09:53:52.449Z,98666.45
2023-03-25T09:54:58.944Z,98667.47
2023-03-25T09:56:06.693Z,98670.09
2023-03-25T09:57:13.220Z,98664.08
2023-03-25T09:58:31.686Z,98664.65
2023-03-25T10:01:02.882Z,98666.14
2023-03-25T10:02:32.818Z,98663.59
2023-03-25T10:03:57.046Z,98660.86
2023-03-25T10:05:18.679Z,98662.98
2023-03-25T10:06:26.060Z,98653.63
2023-03-25T10:08:02.246Z,98657.73
2023-03-25T10:09:20.282Z,98655.82
2023-03-25T10:10:26.916Z,98656.68
2023-03-25T10:11:49.330Z,98647.28
2023-03-25T10:12:58.432Z,98651.71
2023-03-25T10:14:21.027Z,98655.55
2023-03-25T10:15:33.057Z,98647.00
2023-03-25T10:16:55.622Z,98642.60
2023-03-25T10:18:11.714Z,98640.94
2023-03-25T10:19:38.367Z,98646.75
2023-03-25T10:21:02.883Z,98645.40
2023-03-25T10:22:09.043Z,98654.63
2023-03-25T10:23:17.985Z,98656.18
2023-03-25T10:24:23.737Z,98646.11
2023-03-25T10:25:28.898Z,98639.61
2023-03-25T10:26:49.857Z,98630.53
2023-03-25T10:27:54.257Z,98639.10
2023-03-25T10:29:09.298Z,98630.83
2023-03-25T10:30:17.736Z,98625.99
2023-03-25T10:31:25.333Z,98615.94
2023-03-25T10:32:34.203Z,98613.70
2023-03-25T10:33:43.086Z,98616.48
2023-03-25T10:34:53.282Z,98613.42
2023-03-25T10:36:06.455Z,98604.88
2023-03-25T10:37:17.729Z,98608.47
2023-03-25T10:38:24.164Z,98602.94
2023-03-25T10:39:31.948Z,98606.67
2023-03-25T10:40:40.964Z,98600.19
2023-03-25T10:41:46.589Z,98606.23
2023-03-25T10:43:27.536Z,98613.02
2023-03-25T10:44:31.025Z,98601.41
2023-03-25T10:45:35.685Z,98603.76
2023-03-25T10:46:47.933Z,98610.93
2023-03-25T10:47:53.740Z,98612.20
2023-03-25T10:49:00.558Z,98613.16
2023-03-25T10:50:04.071Z,98610.77
2023-03-25T10:51:19.048Z,98614.50
2023-03-25T10:52:22.099Z,98608.13
2023-03-25T10:53:29.027Z,98605.33
2023-03-25T10:54:40.487Z,98607.53
2023-03-25T10:55:44.970Z,98599.63
2023-03-25T10:56:51.318Z,98598.00
2023-03-25T10:57:55.855Z,98591.00
2023-03-25T10:59:02.389Z,98584.66
2023-03-25T11:01:35.963Z,98579.73
2023-03-25T11:02:39.011Z,98578.89
2023-03-25T11:03:44.369Z,98581.25
2023-03-25T11:04:50.536Z,98578.34
2023-03-25T11:05:53.488Z,98586.22
2023-03-25T11:06:58.864Z,98584.44
2023-03-25T11:08:14.703Z,98587.46
2023-03-25T11:09:14.916Z,98590.64
2023-03-25T11:10:24.672Z,98577.38
2023-03-25T11:11:35.020Z,98576.67
2023-03-25T11:12:43.440Z,98568.39
2023-03-25T11:13:46.342Z,98569.78
2023-03-25T11:14:58.653Z,98568.53
2023-03-25T11:16:03.183Z,98569.50
2023-03-25T11:17:15.995Z,98571.42
2023-03-25T11:18:21.925Z,98576.97
2023-03-25T11:19:31.056Z,98570.61
2023-03-25T11:20:43.666Z,98563.42
2023-03-25T11:21:49.360Z,98567.27
2023-03-25T11:22:55.011Z,98567.27
2023-03-25T11:23:59.678Z,98571.02
2023-03-25T11:25:08.466Z,98563.69
2023-03-25T11:26:24.342Z,98566.72
2023-03-25T11:27:29.379Z,98562.02
2023-03-25T11:28:41.232Z,98558.44
2023-03-25T11:29:48.138Z,98563.98
2023-03-25T11:31:20.555Z,98557.06
2023-03-25T11:32:26.060Z,98559.95
2023-03-25T11:33:28.506Z,98558.99
2023-03-25T11:34:33.504Z,98562.58
2023-03-25T11:35:39.463Z,98558.02
2023-03-25T11:37:04.118Z,98561.20
2023-03-25T11:38:22.775Z,98558.73
2023-03-25T11:39:40.043Z,98555.70
2023-03-25T11:40:57.893Z,98562.58
2023-03-25T11:42:03.122Z,98560.64
2023-03-25T11:43:09.590Z,98557.61
2023-03-25T11:44:28.366Z,98561.61
2023-03-25T11:45:39.297Z,98558.45
2023-03-25T11:46:45.188Z,98558.31
2023-03-25T11:47:48.464Z,98552.37
2023-03-25T11:48:51.916Z,98547.81
2023-03-25T11:49:56.022Z,98549.44
2023-03-25T11:51:05.255Z,98547.63
2023-03-25T11:52:11.541Z,98549.25
2023-03-25T11:53:18.304Z,98548.86
2023-03-25T11:54:20.598Z,98554.69
2023-03-25T11:55:26.631Z,98555.92
2023-03-25T11:56:32.876Z,98550.27
2023-03-25T11:57:38.833Z,98554.83
2023-03-25T11:58:41.455Z,98556.49
2023-03-25T11:59:46.440Z,98559.55
2023-03-25T12:00:50.957Z,98560.12
2023-03-25T12:02:06.505Z,98564.55
2023-03-25T12:03:19.732Z,98560.41
2023-03-25T12:04:24.252Z,98562.74
2023-03-25T12:05:26.513Z,98557.64
2023-03-25T12:06:29.994Z,98556.53
2023-03-25T12:07:46.049Z,98570.63
2023-03-25T12:09:00.050Z,98568.00
2023-03-25T12:10:06.871Z,98564.80
2023-03-25T12:11:16.235Z,98559.85
2023-03-25T12:12:32.055Z,98565.11
2023-03-25T12:13:55.825Z,98569.66
2023-03-25T12:15:21.459Z,98568.14
2023-03-25T12:16:54.131Z,98564.23
2023-03-25T12:18:03.152Z,98564.23
2023-03-25T12:19:32.425Z,98555.16
2023-03-25T12:20:47.224Z,98564.95
2023-03-25T12:22:00.277Z,98560.95
2023-03-25T12:23:19.021Z,98571.71
2023-03-25T12:24:43.913Z,98561.91
2023-03-25T12:25:52.368Z,98556.92
2023-03-25T12:27:07.649Z,98561.21
2023-03-25T12:28:48.125Z,98559.55
2023-03-25T12:30:00.331Z,98565.90
2023-03-25T12:31:27.691Z,98573.61
2023-03-25T12:32:33.687Z,98570.96
2023-03-25T12:34:00.765Z,98573.59
2023-03-25T12:36:29.975Z,98571.95
2023-03-25T12:37:38.780Z,98573.91
2023-03-25T12:38:57.808Z,98568.92
2023-03-25T12:40:21.162Z,98581.09
2023-03-25T12:41:46.738Z,98567.67
2023-03-25T12:44:34.385Z,98574.71
2023-03-25T12:45:44.559Z,98572.46
2023-03-25T12:47:08.925Z,98573.00
2023-03-25T12:48:19.488Z,98569.70
2023-03-25T12:49:41.041Z,98563.22
2023-03-25T12:51:00.359Z,98565.02
2023-03-25T12:52:31.552Z,98570.55
2023-03-25T12:53:41.649Z,98566.40
2023-03-25T12:55:05.328Z,98570.92
2023-03-25T12:56:13.971Z,98568.83
2023-03-25T12:57:40.002Z,98563.30
2023-03-25T12:58:58.631Z,98566.77
2023-03-25T13:00:08.247Z,98568.01
2023-03-25T13:01:38.502Z,98562.93
2023-03-25T13:03:02.741Z,98560.59
2023-03-25T13:04:15.308Z,98561.43
2023-03-25T13:05:39.334Z,98565.70
2023-03-25T13:07:02.236Z,98560.05
2023-03-25T13:08:22.443Z,98557.52
2023-03-25T13:09:37.509Z,98551.84
2023-03-25T13:10:43.943Z,98558.59
2023-03-25T13:11:55.885Z,98549.20
2023-03-25T13:13:01.548Z,98549.52
2023-03-25T13:14:11.166Z,98549.64
2023-03-25T13:15:27.875Z,98547.47
2023-03-25T13:16:33.670Z,98545.83
2023-03-25T13:17:42.916Z,98547.77
2023-03-25T13:18:51.669Z,98553.72
2023-03-25T13:19:58.610Z,98547.36
2023-03-25T13:21:14.422Z,98549.58
2023-03-25T13:23:37.603Z,98546.56
2023-03-25T13:24:52.359Z,98549.27